sensor_id;sensor_type;location;lat;lon;timestamp;P1;durP1;ratioP1;P2;durP2;ratioP2
73428;SDS011;61643;49.564;17.412;2023-07-29T00:00:57;5.97;;;2.90;;
73428;SDS011;61643;49.564;17.412;2023-07-29T00:03:23;5.60;;;2.80;;
73428;SDS011;61643;49.564;17.412;2023-07-29T00:05:49;3.85;;;2.72;;
73428;SDS011;61643;49.564;17.412;2023-07-29T00:08:15;5.93;;;2.80;;
73428;SDS011;61643;49.564;17.412;2023-07-29T00:10:41;4.03;;;2.60;;
73428;SDS011;61643;49.564;17.412;2023-07-29T00:13:07;4.07;;;2.80;;
73428;SDS011;61643;49.564;17.412;2023-07-29T00:15:34;11.20;;;3.50;;
73428;SDS011;61643;49.564;17.412;2023-07-29T00:18:00;6.70;;;3.13;;
73428;SDS011;61643;49.564;17.412;2023-07-29T00:20:26;6.68;;;3.08;;
73428;SDS011;61643;49.564;17.412;2023-07-29T00:22:52;6.60;;;3.03;;
73428;SDS011;61643;49.564;17.412;2023-07-29T00:27:46;10.32;;;3.40;;
73428;SDS011;61643;49.564;17.412;2023-07-29T00:30:12;9.63;;;3.30;;
73428;SDS011;61643;49.564;17.412;2023-07-29T00:32:38;15.75;;;4.10;;
73428;SDS011;61643;49.564;17.412;2023-07-29T00:35:04;7.65;;;4.63;;
73428;SDS011;61643;49.564;17.412;2023-07-29T00:37:31;9.15;;;4.20;;
73428;SDS011;61643;49.564;17.412;2023-07-29T00:39:57;8.70;;;4.03;;
73428;SDS011;61643;49.564;17.412;2023-07-29T00:42:24;9.13;;;3.97;;
73428;SDS011;61643;49.564;17.412;2023-07-29T00:44:50;7.95;;;3.65;;
73428;SDS011;61643;49.564;17.412;2023-07-29T00:47:16;7.03;;;3.03;;
73428;SDS011;61643;49.564;17.412;2023-07-29T00:49:44;5.93;;;3.08;;
73428;SDS011;61643;49.564;17.412;2023-07-29T00:52:11;5.55;;;2.72;;
73428;SDS011;61643;49.564;17.412;2023-07-29T00:54:38;12.40;;;3.15;;
73428;SDS011;61643;49.564;17.412;2023-07-29T00:57:06;6.47;;;3.00;;
73428;SDS011;61643;49.564;17.412;2023-07-29T01:02:05;8.95;;;2.97;;
73428;SDS011;61643;49.564;17.412;2023-07-29T01:04:31;4.35;;;3.25;;
73428;SDS011;61643;49.564;17.412;2023-07-29T01:18:05;6.60;;;2.85;;
73428;SDS011;61643;49.564;17.412;2023-07-29T01:20:37;8.40;;;3.15;;
73428;SDS011;61643;49.564;17.412;2023-07-29T01:23:05;11.32;;;3.10;;
73428;SDS011;61643;49.564;17.412;2023-07-29T01:25:31;4.03;;;2.63;;
73428;SDS011;61643;49.564;17.412;2023-07-29T01:27:57;4.18;;;2.83;;
73428;SDS011;61643;49.564;17.412;2023-07-29T01:30:26;7.43;;;2.92;;
73428;SDS011;61643;49.564;17.412;2023-07-29T01:33:03;4.05;;;3.00;;
73428;SDS011;61643;49.564;17.412;2023-07-29T01:35:45;8.50;;;2.90;;
73428;SDS011;61643;49.564;17.412;2023-07-29T01:38:17;6.30;;;3.00;;
73428;SDS011;61643;49.564;17.412;2023-07-29T01:40:44;4.18;;;2.75;;
73428;SDS011;61643;49.564;17.412;2023-07-29T01:43:11;4.85;;;2.83;;
73428;SDS011;61643;49.564;17.412;2023-07-29T01:45:38;5.80;;;2.70;;
73428;SDS011;61643;49.564;17.412;2023-07-29T01:48:05;5.20;;;3.10;;
73428;SDS011;61643;49.564;17.412;2023-07-29T01:50:32;6.28;;;2.90;;
73428;SDS011;61643;49.564;17.412;2023-07-29T01:52:59;10.68;;;3.10;;
73428;SDS011;61643;49.564;17.412;2023-07-29T01:55:25;5.55;;;2.95;;
73428;SDS011;61643;49.564;17.412;2023-07-29T01:57:51;7.28;;;2.85;;
73428;SDS011;61643;49.564;17.412;2023-07-29T02:00:20;6.95;;;2.63;;
73428;SDS011;61643;49.564;17.412;2023-07-29T02:02:46;7.85;;;2.78;;
73428;SDS011;61643;49.564;17.412;2023-07-29T02:05:13;8.02;;;3.05;;
73428;SDS011;61643;49.564;17.412;2023-07-29T02:07:38;10.93;;;2.85;;
73428;SDS011;61643;49.564;17.412;2023-07-29T02:10:05;6.38;;;2.83;;
73428;SDS011;61643;49.564;17.412;2023-07-29T02:12:31;7.03;;;2.80;;
73428;SDS011;61643;49.564;17.412;2023-07-29T02:14:57;7.47;;;3.28;;
73428;SDS011;61643;49.564;17.412;2023-07-29T02:17:23;4.05;;;2.72;;
73428;SDS011;61643;49.564;17.412;2023-07-29T02:19:49;5.78;;;2.85;;
73428;SDS011;61643;49.564;17.412;2023-07-29T02:22:16;9.90;;;2.70;;
73428;SDS011;61643;49.564;17.412;2023-07-29T02:24:42;5.47;;;2.63;;
73428;SDS011;61643;49.564;17.412;2023-07-29T02:27:09;6.10;;;2.58;;
73428;SDS011;61643;49.564;17.412;2023-07-29T02:29:35;5.47;;;3.35;;
73428;SDS011;61643;49.564;17.412;2023-07-29T02:32:02;7.03;;;2.60;;
73428;SDS011;61643;49.564;17.412;2023-07-29T02:34:29;6.95;;;2.50;;
73428;SDS011;61643;49.564;17.412;2023-07-29T02:36:55;3.58;;;2.40;;
73428;SDS011;61643;49.564;17.412;2023-07-29T02:39:21;8.68;;;2.78;;
73428;SDS011;61643;49.564;17.412;2023-07-29T02:41:47;6.75;;;2.67;;
73428;SDS011;61643;49.564;17.412;2023-07-29T02:44:13;8.30;;;2.60;;
73428;SDS011;61643;49.564;17.412;2023-07-29T02:46:39;6.07;;;3.15;;
73428;SDS011;61643;49.564;17.412;2023-07-29T02:49:05;7.90;;;2.90;;
73428;SDS011;61643;49.564;17.412;2023-07-29T02:51:31;5.60;;;2.85;;
73428;SDS011;61643;49.564;17.412;2023-07-29T02:53:57;4.10;;;2.63;;
73428;SDS011;61643;49.564;17.412;2023-07-29T02:56:23;4.20;;;2.90;;
73428;SDS011;61643;49.564;17.412;2023-07-29T02:58:49;6.40;;;3.08;;
73428;SDS011;61643;49.564;17.412;2023-07-29T03:01:17;5.43;;;2.78;;
73428;SDS011;61643;49.564;17.412;2023-07-29T03:03:43;5.68;;;2.75;;
73428;SDS011;61643;49.564;17.412;2023-07-29T03:06:10;9.05;;;2.90;;
73428;SDS011;61643;49.564;17.412;2023-07-29T03:08:36;7.78;;;3.35;;
73428;SDS011;61643;49.564;17.412;2023-07-29T03:11:06;7.50;;;3.25;;
73428;SDS011;61643;49.564;17.412;2023-07-29T03:13:33;6.63;;;3.13;;
73428;SDS011;61643;49.564;17.412;2023-07-29T03:16:05;5.03;;;2.80;;
73428;SDS011;61643;49.564;17.412;2023-07-29T03:18:38;5.68;;;3.13;;
73428;SDS011;61643;49.564;17.412;2023-07-29T03:21:04;5.75;;;2.53;;
73428;SDS011;61643;49.564;17.412;2023-07-29T03:23:32;6.72;;;2.65;;
73428;SDS011;61643;49.564;17.412;2023-07-29T03:25:59;5.70;;;2.85;;
73428;SDS011;61643;49.564;17.412;2023-07-29T03:28:27;4.00;;;3.05;;
73428;SDS011;61643;49.564;17.412;2023-07-29T03:30:55;6.32;;;3.03;;
73428;SDS011;61643;49.564;17.412;2023-07-29T03:33:22;5.88;;;3.10;;
73428;SDS011;61643;49.564;17.412;2023-07-29T03:35:48;6.65;;;3.00;;
73428;SDS011;61643;49.564;17.412;2023-07-29T03:38:14;7.13;;;3.10;;
73428;SDS011;61643;49.564;17.412;2023-07-29T03:40:40;5.18;;;3.08;;
73428;SDS011;61643;49.564;17.412;2023-07-29T03:43:07;4.90;;;2.65;;
73428;SDS011;61643;49.564;17.412;2023-07-29T03:45:34;10.02;;;3.50;;
73428;SDS011;61643;49.564;17.412;2023-07-29T03:48:00;3.47;;;2.60;;
73428;SDS011;61643;49.564;17.412;2023-07-29T03:50:27;7.43;;;3.22;;
73428;SDS011;61643;49.564;17.412;2023-07-29T03:52:55;11.45;;;2.90;;
73428;SDS011;61643;49.564;17.412;2023-07-29T03:55:21;9.52;;;3.33;;
73428;SDS011;61643;49.564;17.412;2023-07-29T03:57:47;7.45;;;3.60;;
73428;SDS011;61643;49.564;17.412;2023-07-29T04:00:14;9.02;;;3.42;;
73428;SDS011;61643;49.564;17.412;2023-07-29T04:02:41;7.00;;;3.13;;
73428;SDS011;61643;49.564;17.412;2023-07-29T04:05:07;6.00;;;3.10;;
73428;SDS011;61643;49.564;17.412;2023-07-29T04:07:34;4.20;;;3.05;;
73428;SDS011;61643;49.564;17.412;2023-07-29T04:10:01;7.22;;;3.60;;
73428;SDS011;61643;49.564;17.412;2023-07-29T04:12:27;7.70;;;3.05;;
73428;SDS011;61643;49.564;17.412;2023-07-29T04:14:53;7.90;;;3.28;;
73428;SDS011;61643;49.564;17.412;2023-07-29T04:17:19;5.90;;;3.05;;
73428;SDS011;61643;49.564;17.412;2023-07-29T04:19:45;5.68;;;3.13;;
73428;SDS011;61643;49.564;17.412;2023-07-29T04:22:11;7.40;;;3.38;;
73428;SDS011;61643;49.564;17.412;2023-07-29T04:24:37;7.35;;;3.40;;
73428;SDS011;61643;49.564;17.412;2023-07-29T04:27:03;5.90;;;3.00;;
73428;SDS011;61643;49.564;17.412;2023-07-29T04:29:30;5.70;;;3.42;;
73428;SDS011;61643;49.564;17.412;2023-07-29T04:31:56;9.38;;;3.60;;
73428;SDS011;61643;49.564;17.412;2023-07-29T04:34:22;6.70;;;4.30;;
73428;SDS011;61643;49.564;17.412;2023-07-29T04:36:48;8.68;;;4.07;;
73428;SDS011;61643;49.564;17.412;2023-07-29T04:39:14;8.45;;;4.20;;
73428;SDS011;61643;49.564;17.412;2023-07-29T04:41:40;6.43;;;3.42;;
73428;SDS011;61643;49.564;17.412;2023-07-29T04:44:06;10.20;;;3.85;;
73428;SDS011;61643;49.564;17.412;2023-07-29T04:46:33;7.53;;;3.60;;
73428;SDS011;61643;49.564;17.412;2023-07-29T04:48:59;5.85;;;3.50;;
73428;SDS011;61643;49.564;17.412;2023-07-29T04:51:25;8.93;;;3.47;;
73428;SDS011;61643;49.564;17.412;2023-07-29T04:53:51;7.60;;;3.47;;
73428;SDS011;61643;49.564;17.412;2023-07-29T04:56:16;7.13;;;3.42;;
73428;SDS011;61643;49.564;17.412;2023-07-29T04:58:42;6.38;;;3.13;;
73428;SDS011;61643;49.564;17.412;2023-07-29T05:01:08;4.75;;;3.03;;
73428;SDS011;61643;49.564;17.412;2023-07-29T05:03:35;5.47;;;3.45;;
73428;SDS011;61643;49.564;17.412;2023-07-29T05:06:02;5.28;;;3.15;;
73428;SDS011;61643;49.564;17.412;2023-07-29T05:08:28;8.25;;;3.50;;
73428;SDS011;61643;49.564;17.412;2023-07-29T05:10:54;10.18;;;3.53;;
73428;SDS011;61643;49.564;17.412;2023-07-29T05:13:21;5.10;;;2.90;;
73428;SDS011;61643;49.564;17.412;2023-07-29T05:15:48;4.85;;;2.80;;
73428;SDS011;61643;49.564;17.412;2023-07-29T05:18:14;6.63;;;3.20;;
73428;SDS011;61643;49.564;17.412;2023-07-29T05:20:41;7.35;;;3.33;;
73428;SDS011;61643;49.564;17.412;2023-07-29T05:23:07;5.20;;;2.97;;
73428;SDS011;61643;49.564;17.412;2023-07-29T05:25:33;5.30;;;3.13;;
73428;SDS011;61643;49.564;17.412;2023-07-29T05:28:02;6.57;;;2.60;;
73428;SDS011;61643;49.564;17.412;2023-07-29T05:30:29;3.33;;;2.67;;
73428;SDS011;61643;49.564;17.412;2023-07-29T05:33:03;5.32;;;3.05;;
73428;SDS011;61643;49.564;17.412;2023-07-29T05:35:30;5.05;;;2.65;;
73428;SDS011;61643;49.564;17.412;2023-07-29T05:37:56;5.25;;;2.78;;
73428;SDS011;61643;49.564;17.412;2023-07-29T05:40:21;10.88;;;3.13;;
73428;SDS011;61643;49.564;17.412;2023-07-29T05:42:48;6.32;;;2.92;;
73428;SDS011;61643;49.564;17.412;2023-07-29T05:45:14;3.47;;;2.65;;
73428;SDS011;61643;49.564;17.412;2023-07-29T05:47:40;3.15;;;2.50;;
73428;SDS011;61643;49.564;17.412;2023-07-29T05:50:06;4.90;;;2.50;;
73428;SDS011;61643;49.564;17.412;2023-07-29T05:52:33;3.80;;;2.88;;
73428;SDS011;61643;49.564;17.412;2023-07-29T05:54:59;5.18;;;2.72;;
73428;SDS011;61643;49.564;17.412;2023-07-29T05:57:25;3.47;;;2.75;;
73428;SDS011;61643;49.564;17.412;2023-07-29T05:59:51;5.45;;;2.95;;
73428;SDS011;61643;49.564;17.412;2023-07-29T06:02:17;3.80;;;2.50;;
73428;SDS011;61643;49.564;17.412;2023-07-29T06:04:43;4.03;;;2.90;;
73428;SDS011;61643;49.564;17.412;2023-07-29T06:07:09;5.55;;;3.08;;
73428;SDS011;61643;49.564;17.412;2023-07-29T06:09:35;4.00;;;2.72;;
73428;SDS011;61643;49.564;17.412;2023-07-29T06:12:01;5.78;;;3.40;;
73428;SDS011;61643;49.564;17.412;2023-07-29T06:14:27;6.90;;;3.50;;
73428;SDS011;61643;49.564;17.412;2023-07-29T06:16:53;7.18;;;3.70;;
73428;SDS011;61643;49.564;17.412;2023-07-29T06:19:20;7.00;;;3.80;;
73428;SDS011;61643;49.564;17.412;2023-07-29T06:21:46;10.60;;;4.07;;
73428;SDS011;61643;49.564;17.412;2023-07-29T06:24:12;6.90;;;3.53;;
73428;SDS011;61643;49.564;17.412;2023-07-29T06:26:38;7.20;;;4.07;;
73428;SDS011;61643;49.564;17.412;2023-07-29T06:29:04;8.25;;;3.88;;
73428;SDS011;61643;49.564;17.412;2023-07-29T06:31:30;11.40;;;4.20;;
73428;SDS011;61643;49.564;17.412;2023-07-29T06:36:24;5.13;;;3.33;;
73428;SDS011;61643;49.564;17.412;2023-07-29T06:38:50;4.65;;;3.50;;
73428;SDS011;61643;49.564;17.412;2023-07-29T06:41:16;6.30;;;3.55;;
73428;SDS011;61643;49.564;17.412;2023-07-29T06:43:42;6.63;;;2.78;;
73428;SDS011;61643;49.564;17.412;2023-07-29T06:46:08;7.32;;;3.08;;
73428;SDS011;61643;49.564;17.412;2023-07-29T06:48:34;4.10;;;2.83;;
73428;SDS011;61643;49.564;17.412;2023-07-29T06:51:00;5.72;;;3.00;;
73428;SDS011;61643;49.564;17.412;2023-07-29T06:53:27;6.45;;;3.10;;
73428;SDS011;61643;49.564;17.412;2023-07-29T06:55:53;4.00;;;2.90;;
73428;SDS011;61643;49.564;17.412;2023-07-29T06:58:20;7.45;;;2.72;;
73428;SDS011;61643;49.564;17.412;2023-07-29T07:00:46;5.63;;;2.92;;
73428;SDS011;61643;49.564;17.412;2023-07-29T07:03:12;8.75;;;2.85;;
73428;SDS011;61643;49.564;17.412;2023-07-29T07:05:38;4.00;;;2.58;;
73428;SDS011;61643;49.564;17.412;2023-07-29T07:08:04;5.47;;;2.42;;
73428;SDS011;61643;49.564;17.412;2023-07-29T07:10:30;3.13;;;2.45;;
73428;SDS011;61643;49.564;17.412;2023-07-29T07:12:56;3.60;;;2.40;;
73428;SDS011;61643;49.564;17.412;2023-07-29T07:15:22;4.05;;;2.78;;
73428;SDS011;61643;49.564;17.412;2023-07-29T07:17:48;3.38;;;2.60;;
73428;SDS011;61643;49.564;17.412;2023-07-29T07:20:14;3.20;;;2.50;;
73428;SDS011;61643;49.564;17.412;2023-07-29T07:22:40;4.22;;;2.30;;
73428;SDS011;61643;49.564;17.412;2023-07-29T07:25:06;4.05;;;2.17;;
73428;SDS011;61643;49.564;17.412;2023-07-29T07:27:32;4.18;;;2.90;;
73428;SDS011;61643;49.564;17.412;2023-07-29T07:29:58;4.57;;;2.75;;
73428;SDS011;61643;49.564;17.412;2023-07-29T07:32:24;2.85;;;2.35;;
73428;SDS011;61643;49.564;17.412;2023-07-29T07:34:51;3.83;;;2.72;;
73428;SDS011;61643;49.564;17.412;2023-07-29T07:37:17;4.95;;;2.47;;
73428;SDS011;61643;49.564;17.412;2023-07-29T07:39:43;3.20;;;2.40;;
73428;SDS011;61643;49.564;17.412;2023-07-29T07:42:09;4.80;;;2.10;;
73428;SDS011;61643;49.564;17.412;2023-07-29T07:44:35;3.72;;;2.65;;
73428;SDS011;61643;49.564;17.412;2023-07-29T07:47:01;3.28;;;2.47;;
73428;SDS011;61643;49.564;17.412;2023-07-29T07:49:27;3.95;;;2.40;;
73428;SDS011;61643;49.564;17.412;2023-07-29T07:51:53;3.28;;;2.55;;
73428;SDS011;61643;49.564;17.412;2023-07-29T07:54:18;3.30;;;2.70;;
73428;SDS011;61643;49.564;17.412;2023-07-29T07:56:44;3.55;;;2.65;;
73428;SDS011;61643;49.564;17.412;2023-07-29T07:59:10;4.60;;;2.45;;
73428;SDS011;61643;49.564;17.412;2023-07-29T08:01:40;10.32;;;2.78;;
73428;SDS011;61643;49.564;17.412;2023-07-29T08:04:06;16.25;;;3.78;;
73428;SDS011;61643;49.564;17.412;2023-07-29T08:06:32;13.02;;;3.40;;
73428;SDS011;61643;49.564;17.412;2023-07-29T08:08:58;7.50;;;3.45;;
73428;SDS011;61643;49.564;17.412;2023-07-29T08:11:25;10.35;;;3.30;;
73428;SDS011;61643;49.564;17.412;2023-07-29T08:13:51;6.75;;;2.95;;
73428;SDS011;61643;49.564;17.412;2023-07-29T08:16:17;11.40;;;3.53;;
73428;SDS011;61643;49.564;17.412;2023-07-29T08:18:44;8.88;;;3.45;;
73428;SDS011;61643;49.564;17.412;2023-07-29T08:21:10;7.80;;;3.50;;
73428;SDS011;61643;49.564;17.412;2023-07-29T08:23:36;6.72;;;3.60;;
73428;SDS011;61643;49.564;17.412;2023-07-29T08:26:03;9.90;;;3.80;;
73428;SDS011;61643;49.564;17.412;2023-07-29T08:28:34;7.75;;;3.30;;
73428;SDS011;61643;49.564;17.412;2023-07-29T08:31:02;4.90;;;3.47;;
73428;SDS011;61643;49.564;17.412;2023-07-29T08:33:28;6.57;;;3.22;;
73428;SDS011;61643;49.564;17.412;2023-07-29T08:35:55;6.25;;;3.22;;
73428;SDS011;61643;49.564;17.412;2023-07-29T08:38:21;6.40;;;3.50;;
73428;SDS011;61643;49.564;17.412;2023-07-29T08:40:55;4.97;;;3.40;;
73428;SDS011;61643;49.564;17.412;2023-07-29T08:43:32;7.03;;;3.28;;
73428;SDS011;61643;49.564;17.412;2023-07-29T08:45:58;4.38;;;3.50;;
73428;SDS011;61643;49.564;17.412;2023-07-29T08:48:32;3.30;;;3.00;;
73428;SDS011;61643;49.564;17.412;2023-07-29T08:51:10;6.22;;;3.38;;
73428;SDS011;61643;49.564;17.412;2023-07-29T08:53:37;3.42;;;2.83;;
73428;SDS011;61643;49.564;17.412;2023-07-29T08:56:07;5.30;;;3.05;;
73428;SDS011;61643;49.564;17.412;2023-07-29T08:58:33;4.35;;;2.83;;
73428;SDS011;61643;49.564;17.412;2023-07-29T09:01:00;5.65;;;4.03;;
73428;SDS011;61643;49.564;17.412;2023-07-29T09:03:26;13.85;;;7.90;;
73428;SDS011;61643;49.564;17.412;2023-07-29T09:05:52;16.10;;;7.30;;
73428;SDS011;61643;49.564;17.412;2023-07-29T09:08:21;8.55;;;5.40;;
73428;SDS011;61643;49.564;17.412;2023-07-29T09:10:48;4.05;;;3.10;;
73428;SDS011;61643;49.564;17.412;2023-07-29T09:13:14;3.70;;;2.80;;
73428;SDS011;61643;49.564;17.412;2023-07-29T09:15:40;3.05;;;2.75;;
73428;SDS011;61643;49.564;17.412;2023-07-29T09:18:11;4.82;;;2.70;;
73428;SDS011;61643;49.564;17.412;2023-07-29T09:20:40;3.85;;;2.58;;
73428;SDS011;61643;49.564;17.412;2023-07-29T09:23:07;2.90;;;2.63;;
73428;SDS011;61643;49.564;17.412;2023-07-29T09:25:36;3.08;;;2.45;;
73428;SDS011;61643;49.564;17.412;2023-07-29T09:28:12;3.15;;;2.58;;
73428;SDS011;61643;49.564;17.412;2023-07-29T09:30:40;3.47;;;2.70;;
73428;SDS011;61643;49.564;17.412;2023-07-29T09:33:08;2.53;;;2.15;;
73428;SDS011;61643;49.564;17.412;2023-07-29T09:35:35;2.55;;;2.00;;
73428;SDS011;61643;49.564;17.412;2023-07-29T09:38:03;2.60;;;1.98;;
73428;SDS011;61643;49.564;17.412;2023-07-29T09:40:39;2.20;;;2.00;;
73428;SDS011;61643;49.564;17.412;2023-07-29T09:43:06;2.30;;;2.10;;
73428;SDS011;61643;49.564;17.412;2023-07-29T09:45:34;3.85;;;2.53;;
73428;SDS011;61643;49.564;17.412;2023-07-29T09:48:01;3.42;;;2.55;;
73428;SDS011;61643;49.564;17.412;2023-07-29T09:50:29;3.33;;;2.80;;
73428;SDS011;61643;49.564;17.412;2023-07-29T09:52:55;3.22;;;2.65;;
73428;SDS011;61643;49.564;17.412;2023-07-29T09:55:24;5.85;;;4.00;;
73428;SDS011;61643;49.564;17.412;2023-07-29T09:57:58;5.65;;;3.38;;
73428;SDS011;61643;49.564;17.412;2023-07-29T10:00:30;4.00;;;3.42;;
73428;SDS011;61643;49.564;17.412;2023-07-29T10:02:57;4.90;;;3.20;;
73428;SDS011;61643;49.564;17.412;2023-07-29T10:05:25;4.60;;;3.30;;
73428;SDS011;61643;49.564;17.412;2023-07-29T10:07:52;4.05;;;3.13;;
73428;SDS011;61643;49.564;17.412;2023-07-29T10:10:20;4.30;;;3.50;;
73428;SDS011;61643;49.564;17.412;2023-07-29T10:12:46;3.85;;;2.90;;
73428;SDS011;61643;49.564;17.412;2023-07-29T10:15:12;4.47;;;4.00;;
73428;SDS011;61643;49.564;17.412;2023-07-29T10:17:39;6.47;;;4.20;;
73428;SDS011;61643;49.564;17.412;2023-07-29T10:20:09;3.85;;;3.47;;
73428;SDS011;61643;49.564;17.412;2023-07-29T10:22:40;3.78;;;3.15;;
73428;SDS011;61643;49.564;17.412;2023-07-29T10:25:13;3.67;;;2.60;;
73428;SDS011;61643;49.564;17.412;2023-07-29T10:27:43;3.58;;;2.47;;
73428;SDS011;61643;49.564;17.412;2023-07-29T10:30:12;2.90;;;2.60;;
73428;SDS011;61643;49.564;17.412;2023-07-29T10:32:39;3.28;;;2.47;;
73428;SDS011;61643;49.564;17.412;2023-07-29T10:35:09;3.33;;;2.47;;
73428;SDS011;61643;49.564;17.412;2023-07-29T10:37:35;2.33;;;2.05;;
73428;SDS011;61643;49.564;17.412;2023-07-29T10:40:05;2.10;;;1.90;;
73428;SDS011;61643;49.564;17.412;2023-07-29T10:42:32;3.80;;;2.00;;
73428;SDS011;61643;49.564;17.412;2023-07-29T10:44:58;2.40;;;1.90;;
73428;SDS011;61643;49.564;17.412;2023-07-29T10:47:25;4.03;;;2.25;;
73428;SDS011;61643;49.564;17.412;2023-07-29T10:49:56;2.30;;;2.10;;
73428;SDS011;61643;49.564;17.412;2023-07-29T10:55:02;2.80;;;2.38;;
73428;SDS011;61643;49.564;17.412;2023-07-29T10:57:33;2.80;;;2.05;;
73428;SDS011;61643;49.564;17.412;2023-07-29T11:00:01;2.53;;;1.92;;
73428;SDS011;61643;49.564;17.412;2023-07-29T11:02:32;2.13;;;1.80;;
73428;SDS011;61643;49.564;17.412;2023-07-29T11:05:06;1.42;;;1.33;;
73428;SDS011;61643;49.564;17.412;2023-07-29T11:07:46;1.52;;;1.42;;
73428;SDS011;61643;49.564;17.412;2023-07-29T11:10:14;1.70;;;1.60;;
73428;SDS011;61643;49.564;17.412;2023-07-29T11:15:23;1.85;;;1.23;;
73428;SDS011;61643;49.564;17.412;2023-07-29T11:17:53;1.42;;;1.23;;
73428;SDS011;61643;49.564;17.412;2023-07-29T11:20:21;1.40;;;1.30;;
73428;SDS011;61643;49.564;17.412;2023-07-29T11:22:48;1.23;;;1.13;;
73428;SDS011;61643;49.564;17.412;2023-07-29T11:25:15;1.38;;;1.20;;
73428;SDS011;61643;49.564;17.412;2023-07-29T11:27:43;3.38;;;1.02;;
73428;SDS011;61643;49.564;17.412;2023-07-29T11:30:10;1.10;;;1.00;;
73428;SDS011;61643;49.564;17.412;2023-07-29T11:37:35;1.40;;;1.30;;
73428;SDS011;61643;49.564;17.412;2023-07-29T11:40:02;1.40;;;1.23;;
73428;SDS011;61643;49.564;17.412;2023-07-29T11:42:31;1.52;;;1.15;;
73428;SDS011;61643;49.564;17.412;2023-07-29T11:44:59;1.60;;;1.10;;
73428;SDS011;61643;49.564;17.412;2023-07-29T11:47:29;1.30;;;1.08;;
73428;SDS011;61643;49.564;17.412;2023-07-29T11:49:57;1.30;;;1.10;;
73428;SDS011;61643;49.564;17.412;2023-07-29T11:52:26;1.15;;;1.05;;
73428;SDS011;61643;49.564;17.412;2023-07-29T11:54:53;0.93;;;0.90;;
73428;SDS011;61643;49.564;17.412;2023-07-29T11:57:19;1.83;;;1.40;;
73428;SDS011;61643;49.564;17.412;2023-07-29T11:59:45;1.20;;;1.10;;
73428;SDS011;61643;49.564;17.412;2023-07-29T12:02:16;1.13;;;1.02;;
73428;SDS011;61643;49.564;17.412;2023-07-29T12:04:45;1.98;;;1.20;;
73428;SDS011;61643;49.564;17.412;2023-07-29T12:07:13;3.08;;;1.33;;
73428;SDS011;61643;49.564;17.412;2023-07-29T12:12:07;3.17;;;1.20;;
73428;SDS011;61643;49.564;17.412;2023-07-29T12:14:34;1.60;;;1.00;;
73428;SDS011;61643;49.564;17.412;2023-07-29T12:17:04;1.98;;;0.98;;
73428;SDS011;61643;49.564;17.412;2023-07-29T12:19:41;1.20;;;1.00;;
73428;SDS011;61643;49.564;17.412;2023-07-29T12:22:08;1.30;;;0.93;;
73428;SDS011;61643;49.564;17.412;2023-07-29T12:24:36;1.77;;;1.20;;
73428;SDS011;61643;49.564;17.412;2023-07-29T12:27:03;0.88;;;0.80;;
73428;SDS011;61643;49.564;17.412;2023-07-29T12:29:30;0.90;;;0.80;;
73428;SDS011;61643;49.564;17.412;2023-07-29T12:31:57;1.10;;;1.00;;
73428;SDS011;61643;49.564;17.412;2023-07-29T12:34:25;1.17;;;1.08;;
73428;SDS011;61643;49.564;17.412;2023-07-29T12:36:52;1.83;;;0.93;;
73428;SDS011;61643;49.564;17.412;2023-07-29T12:39:21;5.53;;;1.00;;
73428;SDS011;61643;49.564;17.412;2023-07-29T12:41:47;1.60;;;0.80;;
73428;SDS011;61643;49.564;17.412;2023-07-29T12:44:15;0.75;;;0.73;;
73428;SDS011;61643;49.564;17.412;2023-07-29T12:46:41;1.27;;;0.73;;
73428;SDS011;61643;49.564;17.412;2023-07-29T12:49:07;1.10;;;0.75;;
73428;SDS011;61643;49.564;17.412;2023-07-29T12:51:33;1.02;;;0.70;;
73428;SDS011;61643;49.564;17.412;2023-07-29T12:54:00;0.70;;;0.70;;
73428;SDS011;61643;49.564;17.412;2023-07-29T12:56:26;0.88;;;0.70;;
73428;SDS011;61643;49.564;17.412;2023-07-29T12:58:52;0.70;;;0.70;;
73428;SDS011;61643;49.564;17.412;2023-07-29T13:01:18;1.40;;;0.68;;
73428;SDS011;61643;49.564;17.412;2023-07-29T13:03:44;1.30;;;0.70;;
73428;SDS011;61643;49.564;17.412;2023-07-29T13:06:11;1.35;;;0.70;;
73428;SDS011;61643;49.564;17.412;2023-07-29T13:08:37;0.73;;;0.73;;
73428;SDS011;61643;49.564;17.412;2023-07-29T13:11:03;0.93;;;0.80;;
73428;SDS011;61643;49.564;17.412;2023-07-29T13:13:30;1.48;;;0.90;;
73428;SDS011;61643;49.564;17.412;2023-07-29T13:15:56;0.73;;;0.73;;
73428;SDS011;61643;49.564;17.412;2023-07-29T13:18:23;1.02;;;0.93;;
73428;SDS011;61643;49.564;17.412;2023-07-29T13:20:49;1.58;;;0.82;;
73428;SDS011;61643;49.564;17.412;2023-07-29T13:23:15;1.58;;;0.95;;
73428;SDS011;61643;49.564;17.412;2023-07-29T13:25:42;0.88;;;0.88;;
73428;SDS011;61643;49.564;17.412;2023-07-29T13:28:10;0.60;;;0.60;;
73428;SDS011;61643;49.564;17.412;2023-07-29T13:30:42;1.10;;;1.00;;
73428;SDS011;61643;49.564;17.412;2023-07-29T13:33:08;1.42;;;1.05;;
73428;SDS011;61643;49.564;17.412;2023-07-29T13:35:34;1.77;;;1.00;;
73428;SDS011;61643;49.564;17.412;2023-07-29T13:38:00;1.65;;;1.00;;
73428;SDS011;61643;49.564;17.412;2023-07-29T13:40:27;1.00;;;0.90;;
73428;SDS011;61643;49.564;17.412;2023-07-29T13:42:53;2.40;;;1.05;;
73428;SDS011;61643;49.564;17.412;2023-07-29T13:45:19;1.52;;;0.90;;
73428;SDS011;61643;49.564;17.412;2023-07-29T13:47:46;1.23;;;0.90;;
73428;SDS011;61643;49.564;17.412;2023-07-29T13:50:12;0.95;;;0.88;;
73428;SDS011;61643;49.564;17.412;2023-07-29T13:52:38;1.42;;;1.00;;
73428;SDS011;61643;49.564;17.412;2023-07-29T13:55:04;1.20;;;1.10;;
73428;SDS011;61643;49.564;17.412;2023-07-29T13:57:31;0.98;;;0.95;;
73428;SDS011;61643;49.564;17.412;2023-07-29T13:59:57;1.15;;;1.00;;
73428;SDS011;61643;49.564;17.412;2023-07-29T14:02:24;3.42;;;1.23;;
73428;SDS011;61643;49.564;17.412;2023-07-29T14:07:18;1.88;;;0.90;;
73428;SDS011;61643;49.564;17.412;2023-07-29T14:09:44;1.83;;;1.00;;
73428;SDS011;61643;49.564;17.412;2023-07-29T14:12:10;1.10;;;1.02;;
73428;SDS011;61643;49.564;17.412;2023-07-29T14:14:38;1.10;;;0.93;;
73428;SDS011;61643;49.564;17.412;2023-07-29T14:17:04;1.95;;;0.90;;
73428;SDS011;61643;49.564;17.412;2023-07-29T14:19:31;0.85;;;0.85;;
73428;SDS011;61643;49.564;17.412;2023-07-29T14:21:57;1.50;;;0.93;;
73428;SDS011;61643;49.564;17.412;2023-07-29T14:24:23;3.53;;;1.02;;
73428;SDS011;61643;49.564;17.412;2023-07-29T14:26:49;7.70;;;0.80;;
73428;SDS011;61643;49.564;17.412;2023-07-29T14:29:15;2.53;;;0.68;;
73428;SDS011;61643;49.564;17.412;2023-07-29T14:31:41;5.45;;;0.80;;
73428;SDS011;61643;49.564;17.412;2023-07-29T14:34:07;3.33;;;0.90;;
73428;SDS011;61643;49.564;17.412;2023-07-29T14:36:33;9.38;;;1.10;;
73428;SDS011;61643;49.564;17.412;2023-07-29T14:38:59;7.65;;;1.63;;
73428;SDS011;61643;49.564;17.412;2023-07-29T14:41:25;7.60;;;1.50;;
73428;SDS011;61643;49.564;17.412;2023-07-29T14:43:51;4.57;;;1.23;;
73428;SDS011;61643;49.564;17.412;2023-07-29T14:46:17;7.10;;;1.40;;
73428;SDS011;61643;49.564;17.412;2023-07-29T14:48:42;4.35;;;1.52;;
73428;SDS011;61643;49.564;17.412;2023-07-29T14:51:09;3.70;;;1.20;;
73428;SDS011;61643;49.564;17.412;2023-07-29T14:53:35;6.00;;;1.23;;
73428;SDS011;61643;49.564;17.412;2023-07-29T14:56:00;6.22;;;1.17;;
73428;SDS011;61643;49.564;17.412;2023-07-29T14:58:26;3.22;;;1.30;;
73428;SDS011;61643;49.564;17.412;2023-07-29T15:00:53;3.35;;;1.10;;
73428;SDS011;61643;49.564;17.412;2023-07-29T15:03:19;5.22;;;1.30;;
73428;SDS011;61643;49.564;17.412;2023-07-29T15:05:45;2.75;;;1.00;;